Time,TemperatureF,DewpointF,PressureIn,WindDirection,WindDirectionDegrees,WindSpeedMPH,WindSpeedGustMPH,Humidity,HourlyPrecipIn,Conditions,Clouds,dailyrainin,SoftwareType,DateUTC
2013-01-09 00:00:00,48.7,43.8,29.50,NNW,337,2.7,2.7,83,0.12,,RA,0.00,VWS V13.01,2013-01-09 06:00:00,
2013-01-09 00:01:00,48.7,43.8,29.50,NNW,332,2.2,2.7,83,0.12,,RA,0.00,VWS V13.01,2013-01-09 06:01:00,
2013-01-09 00:02:00,48.7,43.8,29.50,NNW,332,2.2,2.2,83,0.12,,RA,0.00,VWS V13.01,2013-01-09 06:02:00,
2013-01-09 00:03:00,48.6,43.6,29.50,NW,316,0.0,0.0,83,0.12,, +RA,0.00,VWS V13.01,2013-01-09 06:03:00,
2013-01-09 00:04:00,48.6,43.6,29.50,NW,316,0.0,0.0,83,0.12,,RA,0.00,VWS V13.01,2013-01-09 06:04:00,
2013-01-09 00:05:00,48.6,43.6,29.50,NW,322,0.0,0.0,83,0.12,,RA,0.00,VWS V13.01,2013-01-09 06:05:00,
2013-01-09 00:06:00,48.6,43.6,29.50,NNW,341,3.1,3.1,83,0.12,,RA,0.00,VWS V13.01,2013-01-09 06:06:00,
2013-01-09 00:07:00,48.6,43.6,29.50,NNW,343,3.6,3.6,83,0.20,,RA,0.08,VWS V13.01,2013-01-09 06:07:00,
2013-01-09 00:08:00,48.6,43.6,29.50,NW,321,3.6,3.6,83,0.20,, +RA,0.08,VWS V13.01,2013-01-09 06:08:00,
2013-01-09 00:09:00,48.6,43.6,29.50,NW,321,3.6,3.6,83,0.20,,RA,0.08,VWS V13.01,2013-01-09 06:09:00,
2013-01-09 00:10:00,48.6,43.6,29.50,NW,322,3.1,3.6,83,0.20,,RA,0.08,VWS V13.01,2013-01-09 06:10:00,
2013-01-09 00:11:00,48.6,43.6,29.50,NW,322,2.7,3.1,83,0.16,,RA,0.08,VWS V13.01,2013-01-09 06:11:00,
2013-01-09 00:12:00,48.6,43.6,29.50,NNW,342,0.0,2.7,83,0.16,,RA,0.08,VWS V13.01,2013-01-09 06:12:00,
2013-01-09 00:13:00,48.6,43.6,29.50,North,357,2.2,2.2,83,0.16,, +RA,0.08,VWS V13.01,2013-01-09 06:13:00,
2013-01-09 00:14:00,48.6,43.6,29.50,North,357,2.2,2.2,83,0.16,,RA,0.08,VWS V13.01,2013-01-09 06:14:00,
2013-01-09 00:15:00,48.6,43.6,29.50,North,353,0.0,2.2,83,0.16,,RA,0.08,VWS V13.01,2013-01-09 06:15:00,
2013-01-09 00:16:00,48.6,43.6,29.50,NNW,327,3.1,3.1,83,0.16,,RA,0.08,VWS V13.01,2013-01-09 06:16:00,
2013-01-09 00:17:00,48.6,43.6,29.50,NNW,327,3.1,3.1,83,0.16,,RA,0.08,VWS V13.01,2013-01-09 06:17:00,
2013-01-09 00:18:00,48.6,43.6,29.50,NW,326,0.0,3.1,83,0.16,, +RA,0.08,VWS V13.01,2013-01-09 06:18:00,
2013-01-09 00:19:00,48.6,43.6,29.50,NW,326,0.0,3.1,83,0.16,,RA,0.08,VWS V13.01,2013-01-09 06:19:00,
2013-01-09 00:20:00,48.6,44.0,29.50,NW,316,0.0,2.7,84,0.16,,RA,0.08,VWS V13.01,2013-01-09 06:20:00,
2013-01-09 00:21:00,48.6,44.0,29.50,NW,316,0.0,0.0,84,0.16,,RA,0.08,VWS V13.01,2013-01-09 06:21:00,
2013-01-09 00:22:00,48.6,44.0,29.50,NW,318,0.0,0.0,84,0.16,,RA,0.08,VWS V13.01,2013-01-09 06:22:00,
2013-01-09 00:23:00,48.6,44.0,29.50,NW,322,2.2,2.7,84,0.16,, +RA,0.08,VWS V13.01,2013-01-09 06:23:00,
2013-01-09 00:24:00,48.6,44.0,29.50,NW,322,2.2,2.7,84,0.16,,RA,0.08,VWS V13.01,2013-01-09 06:24:00,
2013-01-09 00:25:00,48.6,44.0,29.50,NW,322,2.2,2.2,84,0.24,,RA,0.16,VWS V13.01,2013-01-09 06:25:00,
2013-01-09 00:26:00,48.6,44.0,29.50,NW,322,2.2,2.2,84,0.24,,RA,0.16,VWS V13.01,2013-01-09 06:26:00,
2013-01-09 00:27:00,48.6,44.0,29.50,NNW,333,0.0,2.2,84,0.20,,RA,0.16,VWS V13.01,2013-01-09 06:27:00,
2013-01-09 00:28:00,48.6,44.0,29.50,NNW,338,2.2,2.2,84,0.20,, +RA,0.16,VWS V13.01,2013-01-09 06:28:00,
2013-01-09 00:29:00,48.6,44.0,29.50,NNW,338,2.2,2.2,84,0.20,,RA,0.16,VWS V13.01,2013-01-09 06:29:00,
2013-01-09 00:30:00,48.6,44.0,29.50,NNW,343,0.0,2.2,84,0.20,,RA,0.16,VWS V13.01,2013-01-09 06:30:00,
2013-01-09 00:31:00,48.6,44.0,29.50,NW,323,2.7,2.7,84,0.20,,RA,0.16,VWS V13.01,2013-01-09 06:31:00,
2013-01-09 00:32:00,48.6,44.0,29.50,NNW,331,0.0,2.7,84,0.20,,RA,0.16,VWS V13.01,2013-01-09 06:32:00,
2013-01-09 00:33:00,48.6,44.0,29.50,NNW,338,0.0,2.2,84,0.20,, +RA,0.16,VWS V13.01,2013-01-09 06:33:00,
2013-01-09 00:34:00,48.6,44.0,29.50,NNW,338,0.0,2.2,84,0.20,,RA,0.16,VWS V13.01,2013-01-09 06:34:00,
2013-01-09 00:35:00,48.6,44.0,29.50,NNW,338,0.0,0.0,84,0.20,,RA,0.16,VWS V13.01,2013-01-09 06:35:00,
2013-01-09 00:36:00,48.6,44.0,29.50,North,10,2.7,2.7,84,0.20,,RA,0.16,VWS V13.01,2013-01-09 06:36:00,
2013-01-09 00:37:00,48.6,44.0,29.47,North,10,2.7,2.7,84,0.20,,RA,0.16,VWS V13.01,2013-01-09 06:37:00,
2013-01-09 00:38:00,48.6,44.0,29.47,NNE,24,0.0,0.0,84,0.20,, +RA,0.16,VWS V13.01,2013-01-09 06:38:00,
2013-01-09 00:39:00,48.6,44.0,29.47,NNE,24,0.0,0.0,84,0.20,,RA,0.16,VWS V13.01,2013-01-09 06:39:00,
2013-01-09 00:40:00,48.6,44.0,29.47,NNE,24,0.0,0.0,84,0.20,,RA,0.16,VWS V13.01,2013-01-09 06:40:00,
2013-01-09 00:41:00,48.6,44.0,29.47,NNW,339,0.0,0.0,84,0.20,,RA,0.16,VWS V13.01,2013-01-09 06:41:00,
2013-01-09 00:42:00,48.6,44.0,29.47,NNE,24,0.0,0.0,84,0.20,,RA,0.16,VWS V13.01,2013-01-09 06:42:00,
2013-01-09 00:43:00,48.6,44.0,29.47,NNE,26,0.0,0.0,84,0.20,,-RA,0.16,VWS V13.01,2013-01-09 06:43:00,
2013-01-09 00:44:00,48.6,44.0,29.47,NNE,26,0.0,0.0,84,0.20,,RA,0.16,VWS V13.01,2013-01-09 06:44:00,
2013-01-09 00:45:00,48.6,44.0,29.47,NNE,21,0.0,0.0,84,0.20,,RA,0.16,VWS V13.01,2013-01-09 06:45:00,
2013-01-09 00:46:00,48.6,44.0,29.47,North,357,0.0,0.0,84,0.20,,RA,0.16,VWS V13.01,2013-01-09 06:46:00,
2013-01-09 00:47:00,48.6,44.0,29.47,North,357,0.0,0.0,84,0.20,,RA,0.16,VWS V13.01,2013-01-09 06:47:00,
2013-01-09 00:48:00,48.6,44.0,29.47,North,357,0.0,0.0,84,0.20,,-RA,0.16,VWS V13.01,2013-01-09 06:48:00,
2013-01-09 00:49:00,48.6,44.0,29.47,North,357,0.0,0.0,84,0.20,,RA,0.16,VWS V13.01,2013-01-09 06:49:00,
2013-01-09 00:50:00,48.6,44.0,29.47,North,357,0.0,0.0,84,0.20,,RA,0.16,VWS V13.01,2013-01-09 06:50:00,
2013-01-09 00:51:00,48.6,44.0,29.47,North,357,0.0,0.0,84,0.20,,RA,0.16,VWS V13.01,2013-01-09 06:51:00,
2013-01-09 00:52:00,48.6,44.0,29.47,North,0,0.0,0.0,84,0.20,,RA,0.16,VWS V13.01,2013-01-09 06:52:00,
2013-01-09 00:53:00,48.6,44.0,29.47,North,1,0.0,2.2,84,0.16,,-RA,0.16,VWS V13.01,2013-01-09 06:53:00,
2013-01-09 00:54:00,48.6,44.0,29.47,North,1,0.0,2.2,84,0.16,,RA,0.16,VWS V13.01,2013-01-09 06:54:00,
2013-01-09 00:55:00,48.6,44.0,29.47,North,357,0.0,0.0,84,0.16,,RA,0.16,VWS V13.01,2013-01-09 06:55:00,
2013-01-09 00:56:00,48.6,44.0,29.47,NNW,345,0.0,0.0,84,0.16,,RA,0.16,VWS V13.01,2013-01-09 06:56:00,
2013-01-09 00:57:00,48.6,44.0,29.47,NNW,345,0.0,0.0,84,0.16,,RA,0.16,VWS V13.01,2013-01-09 06:57:00,
2013-01-09 00:58:00,48.6,44.0,29.47,NW,311,0.0,0.0,84,0.16,,-RA,0.16,VWS V13.01,2013-01-09 06:58:00,
2013-01-09 00:59:00,48.6,44.0,29.47,NW,311,0.0,0.0,84,0.16,,RA,0.16,VWS V13.01,2013-01-09 06:59:00,
2013-01-09 01:00:00,48.6,44.0,29.47,NW,314,0.0,0.0,84,0.16,,RA,0.16,VWS V13.01,2013-01-09 07:00:00,
2013-01-09 01:01:00,48.6,44.0,29.47,NW,317,0.0,0.0,84,0.16,,RA,0.16,VWS V13.01,2013-01-09 07:01:00,
2013-01-09 01:03:00,48.7,44.1,29.47,NW,317,0.0,0.0,84,0.16,,-RA,0.16,VWS V13.01,2013-01-09 07:03:00,
2013-01-09 01:05:00,48.7,44.1,29.47,NW,317,0.0,0.0,84,0.16,,RA,0.16,VWS V13.01,2013-01-09 07:05:00,
2013-01-09 01:06:00,48.7,44.1,29.47,NW,319,0.0,0.0,84,0.16,,RA,0.16,VWS V13.01,2013-01-09 07:06:00,
2013-01-09 01:07:00,48.7,44.1,29.47,NW,319,0.0,0.0,84,0.16,,RA,0.16,VWS V13.01,2013-01-09 07:07:00,
2013-01-09 01:08:00,48.7,44.1,29.47,North,1,0.0,0.0,84,0.12,,-RA,0.20,VWS V13.01,2013-01-09 07:08:00,
2013-01-09 01:09:00,48.7,44.1,29.47,North,1,0.0,0.0,84,0.12,,RA,0.20,VWS V13.01,2013-01-09 07:09:00,
2013-01-09 01:10:00,48.7,44.1,29.47,North,1,0.0,0.0,84,0.12,,RA,0.20,VWS V13.01,2013-01-09 07:10:00,
2013-01-09 01:12:00,48.7,44.1,29.47,North,1,0.0,0.0,84,0.12,,RA,0.20,VWS V13.01,2013-01-09 07:12:00,
2013-01-09 01:13:00,48.7,44.1,29.47,North,2,0.0,0.0,84,0.12,,-RA,0.20,VWS V13.01,2013-01-09 07:13:00,
2013-01-09 01:14:00,48.7,44.1,29.47,North,2,0.0,0.0,84,0.12,,RA,0.20,VWS V13.01,2013-01-09 07:14:00,
2013-01-09 01:15:00,48.7,44.1,29.47,North,2,0.0,0.0,84,0.12,,RA,0.20,VWS V13.01,2013-01-09 07:15:00,
2013-01-09 01:16:00,48.7,44.1,29.47,North,2,0.0,0.0,84,0.12,,RA,0.20,VWS V13.01,2013-01-09 07:16:00,
2013-01-09 01:17:00,48.7,44.1,29.47,NE,43,0.0,0.0,84,0.12,,RA,0.20,VWS V13.01,2013-01-09 07:17:00,
2013-01-09 01:18:00,48.7,44.1,29.47,NE,41,0.0,0.0,84,0.12,,-RA,0.20,VWS V13.01,2013-01-09 07:18:00,
2013-01-09 01:19:00,48.7,44.1,29.47,NE,41,0.0,0.0,84,0.12,,RA,0.20,VWS V13.01,2013-01-09 07:19:00,
2013-01-09 01:20:00,48.7,44.1,29.47,NE,41,0.0,0.0,84,0.12,,RA,0.20,VWS V13.01,2013-01-09 07:20:00,
2013-01-09 01:21:00,48.7,44.1,29.47,NE,43,0.0,0.0,84,0.12,,RA,0.20,VWS V13.01,2013-01-09 07:21:00,
2013-01-09 01:22:00,48.7,44.1,29.47,NE,43,0.0,0.0,84,0.12,,RA,0.20,VWS V13.01,2013-01-09 07:22:00,
2013-01-09 01:23:00,48.7,44.1,29.47,NE,42,0.0,0.0,84,0.12,,-RA,0.20,VWS V13.01,2013-01-09 07:23:00,
2013-01-09 01:24:00,48.7,44.1,29.47,NE,42,0.0,0.0,84,0.12,,RA,0.20,VWS V13.01,2013-01-09 07:24:00,
2013-01-09 01:25:00,48.7,44.1,29.47,NE,41,0.0,0.0,84,0.12,,RA,0.20,VWS V13.01,2013-01-09 07:25:00,
2013-01-09 01:26:00,48.7,44.1,29.47,NE,41,0.0,0.0,84,0.04,,RA,0.20,VWS V13.01,2013-01-09 07:26:00,
2013-01-09 01:27:00,48.7,44.1,29.47,NE,41,0.0,0.0,84,0.04,,RA,0.20,VWS V13.01,2013-01-09 07:27:00,
2013-01-09 01:28:00,48.7,44.1,29.47,NE,41,0.0,0.0,84,0.04,,-RA,0.20,VWS V13.01,2013-01-09 07:28:00,
2013-01-09 01:29:00,48.7,44.1,29.47,NE,41,0.0,0.0,84,0.04,,RA,0.20,VWS V13.01,2013-01-09 07:29:00,
2013-01-09 01:30:00,48.7,44.1,29.47,NE,41,0.0,0.0,84,0.04,,RA,0.20,VWS V13.01,2013-01-09 07:30:00,
2013-01-09 01:31:00,48.7,44.1,29.47,NE,41,0.0,0.0,84,0.04,,RA,0.20,VWS V13.01,2013-01-09 07:31:00,
2013-01-09 01:32:00,48.7,44.1,29.47,NE,42,0.0,0.0,84,0.04,,RA,0.20,VWS V13.01,2013-01-09 07:32:00,
2013-01-09 01:33:00,48.7,44.1,29.47,NE,42,0.0,0.0,84,0.04,,-RA,0.20,VWS V13.01,2013-01-09 07:33:00,
2013-01-09 01:34:00,48.7,44.1,29.47,NE,42,0.0,0.0,84,0.04,,RA,0.20,VWS V13.01,2013-01-09 07:34:00,
2013-01-09 01:35:00,48.7,44.1,29.47,NE,42,0.0,0.0,84,0.04,,RA,0.20,VWS V13.01,2013-01-09 07:35:00,
2013-01-09 01:36:00,48.7,44.1,29.47,NE,42,0.0,0.0,84,0.04,,RA,0.20,VWS V13.01,2013-01-09 07:36:00,
2013-01-09 01:37:00,48.7,44.1,29.47,NE,42,0.0,0.0,84,0.04,,RA,0.20,VWS V13.01,2013-01-09 07:37:00,
2013-01-09 01:38:00,48.7,44.1,29.47,NE,41,0.0,0.0,84,0.04,,-RA,0.20,VWS V13.01,2013-01-09 07:38:00,
2013-01-09 01:39:00,48.7,44.1,29.47,NE,41,0.0,0.0,84,0.04,,RA,0.20,VWS V13.01,2013-01-09 07:39:00,
2013-01-09 01:40:00,48.7,44.1,29.47,NE,42,0.0,0.0,84,0.04,,RA,0.20,VWS V13.01,2013-01-09 07:40:00,
2013-01-09 01:41:00,48.7,44.1,29.47,NE,42,0.0,0.0,84,0.04,,RA,0.20,VWS V13.01,2013-01-09 07:41:00,
2013-01-09 01:42:00,48.9,44.3,29.47,NE,43,0.0,0.0,84,0.04,,RA,0.20,VWS V13.01,2013-01-09 07:42:00,
2013-01-09 01:43:00,48.9,44.3,29.47,NE,43,0.0,0.0,84,0.04,,-RA,0.20,VWS V13.01,2013-01-09 07:43:00,
2013-01-09 01:44:00,48.9,44.3,29.47,NE,43,0.0,0.0,84,0.04,,RA,0.20,VWS V13.01,2013-01-09 07:44:00,
2013-01-09 01:45:00,48.9,44.3,29.47,NE,42,0.0,0.0,84,0.04,,RA,0.20,VWS V13.01,2013-01-09 07:45:00,
2013-01-09 01:46:00,48.9,44.3,29.47,NE,42,0.0,0.0,84,0.04,,RA,0.20,VWS V13.01,2013-01-09 07:46:00,
2013-01-09 01:47:00,48.9,44.3,29.47,NE,42,0.0,0.0,84,0.04,,RA,0.20,VWS V13.01,2013-01-09 07:47:00,
2013-01-09 01:48:00,48.9,44.3,29.47,NE,41,0.0,0.0,84,0.04,,-RA,0.20,VWS V13.01,2013-01-09 07:48:00,
2013-01-09 01:49:00,48.9,44.3,29.47,NE,41,0.0,0.0,84,0.04,,RA,0.20,VWS V13.01,2013-01-09 07:49:00,
2013-01-09 01:50:00,48.9,44.3,29.47,NE,42,0.0,0.0,84,0.04,,RA,0.20,VWS V13.01,2013-01-09 07:50:00,
2013-01-09 01:51:00,49.1,44.5,29.47,NE,42,0.0,0.0,84,0.04,,RA,0.20,VWS V13.01,2013-01-09 07:51:00,
2013-01-09 01:52:00,49.1,44.5,29.47,NE,42,0.0,0.0,84,0.04,,RA,0.20,VWS V13.01,2013-01-09 07:52:00,
2013-01-09 01:53:00,49.1,44.5,29.47,NE,38,0.0,0.0,84,0.04,,-RA,0.20,VWS V13.01,2013-01-09 07:53:00,
2013-01-09 01:54:00,49.1,44.5,29.47,NE,38,0.0,0.0,84,0.04,,RA,0.20,VWS V13.01,2013-01-09 07:54:00,
2013-01-09 01:55:00,49.1,44.5,29.47,NE,38,0.0,0.0,84,0.04,,RA,0.20,VWS V13.01,2013-01-09 07:55:00,
2013-01-09 01:56:00,49.1,44.5,29.47,North,2,2.7,2.7,84,0.04,,RA,0.20,VWS V13.01,2013-01-09 07:56:00,
2013-01-09 01:57:00,49.1,44.5,29.47,NNW,335,0.0,2.7,84,0.04,,RA,0.20,VWS V13.01,2013-01-09 07:57:00,
2013-01-09 01:58:00,49.1,44.5,29.47,WNW,299,0.0,0.0,84,0.04,,-RA,0.20,VWS V13.01,2013-01-09 07:58:00,
2013-01-09 01:59:00,49.1,44.5,29.47,WNW,299,0.0,0.0,84,0.04,,RA,0.20,VWS V13.01,2013-01-09 07:59:00,
2013-01-09 02:00:00,49.3,44.7,29.47,NNW,328,0.0,0.0,84,0.04,,RA,0.20,VWS V13.01,2013-01-09 08:00:00,
2013-01-09 02:01:00,49.3,44.7,29.47,NW,322,0.0,0.0,84,0.04,,RA,0.20,VWS V13.01,2013-01-09 08:01:00,
2013-01-09 02:02:00,49.3,44.7,29.47,NW,320,3.1,3.1,84,0.04,,RA,0.20,VWS V13.01,2013-01-09 08:02:00,
2013-01-09 02:03:00,49.3,44.7,29.47,NW,320,2.7,2.7,84,0.04,,-RA,0.20,VWS V13.01,2013-01-09 08:03:00,
2013-01-09 02:04:00,49.3,44.7,29.47,NNW,332,3.6,3.6,84,0.04,,RA,0.20,VWS V13.01,2013-01-09 08:04:00,
2013-01-09 02:05:00,49.3,44.7,29.47,WNW,299,3.6,3.6,84,0.04,,RA,0.20,VWS V13.01,2013-01-09 08:05:00,
2013-01-09 02:06:00,49.3,44.7,29.47,North,353,2.7,3.6,84,0.04,,RA,0.20,VWS V13.01,2013-01-09 08:06:00,
2013-01-09 02:07:00,49.5,44.8,29.47,NNW,334,0.0,2.7,84,0.04,,RA,0.20,VWS V13.01,2013-01-09 08:07:00,
2013-01-09 02:08:00,49.5,44.8,29.47,WNW,295,2.7,4.0,84,0.04,,-RA,0.24,VWS V13.01,2013-01-09 08:08:00,
2013-01-09 02:09:00,49.5,44.8,29.47,WNW,295,2.7,4.0,84,0.04,,RA,0.24,VWS V13.01,2013-01-09 08:09:00,
2013-01-09 02:10:00,49.5,44.8,29.47,NNW,343,4.0,4.0,84,0.04,,RA,0.24,VWS V13.01,2013-01-09 08:10:00,
2013-01-09 02:11:00,49.5,44.8,29.47,North,353,4.0,4.0,84,0.04,,RA,0.24,VWS V13.01,2013-01-09 08:11:00,
2013-01-09 02:12:00,49.5,44.8,29.47,NW,308,3.1,4.0,84,0.04,,RA,0.24,VWS V13.01,2013-01-09 08:12:00,
2013-01-09 02:13:00,49.5,44.8,29.47,NNW,327,3.1,3.1,84,0.04,,-RA,0.24,VWS V13.01,2013-01-09 08:13:00,
2013-01-09 02:14:00,49.5,44.8,29.47,NNW,327,3.1,3.1,84,0.04,,RA,0.24,VWS V13.01,2013-01-09 08:14:00,
2013-01-09 02:15:00,49.5,44.8,29.47,NNW,327,3.1,3.1,84,0.04,,RA,0.24,VWS V13.01,2013-01-09 08:15:00,
2013-01-09 02:16:00,49.5,44.8,29.47,NNW,332,0.0,3.1,84,0.04,,RA,0.24,VWS V13.01,2013-01-09 08:16:00,
2013-01-09 02:17:00,49.5,44.8,29.47,NNW,332,0.0,0.0,84,0.04,,RA,0.24,VWS V13.01,2013-01-09 08:17:00,
2013-01-09 02:18:00,49.5,44.8,29.47,North,349,0.0,0.0,84,0.04,,-RA,0.24,VWS V13.01,2013-01-09 08:18:00,
2013-01-09 02:19:00,49.5,44.8,29.47,North,349,0.0,0.0,84,0.04,,RA,0.24,VWS V13.01,2013-01-09 08:19:00,
2013-01-09 02:20:00,49.5,44.8,29.50,North,357,2.2,2.2,84,0.04,,RA,0.24,VWS V13.01,2013-01-09 08:20:00,
2013-01-09 02:21:00,49.5,44.8,29.50,NNW,335,2.7,2.7,84,0.04,,RA,0.24,VWS V13.01,2013-01-09 08:21:00,
2013-01-09 02:22:00,49.5,44.8,29.50,WNW,291,3.6,3.6,84,0.04,,RA,0.24,VWS V13.01,2013-01-09 08:22:00,
2013-01-09 02:23:00,49.5,44.8,29.50,North,2,2.2,2.7,84,0.04,,-RA,0.24,VWS V13.01,2013-01-09 08:23:00,
2013-01-09 02:24:00,49.5,44.8,29.50,North,2,2.2,2.7,84,0.04,,RA,0.24,VWS V13.01,2013-01-09 08:24:00,
2013-01-09 02:25:00,49.5,44.8,29.50,North,2,2.2,2.2,84,0.04,,RA,0.24,VWS V13.01,2013-01-09 08:25:00,
2013-01-09 02:26:00,49.5,44.8,29.50,NNW,331,3.6,3.6,84,0.04,,RA,0.24,VWS V13.01,2013-01-09 08:26:00,
2013-01-09 02:27:00,49.5,44.8,29.50,NNE,14,0.0,3.6,84,0.04,,RA,0.24,VWS V13.01,2013-01-09 08:27:00,
2013-01-09 02:28:00,49.5,44.8,29.50,NNE,14,0.0,0.0,84,0.04,,-RA,0.24,VWS V13.01,2013-01-09 08:28:00,
2013-01-09 02:29:00,49.5,44.8,29.50,NNE,14,0.0,0.0,84,0.04,,RA,0.24,VWS V13.01,2013-01-09 08:29:00,
2013-01-09 02:30:00,49.5,44.8,29.50,North,8,0.0,0.0,84,0.04,,RA,0.24,VWS V13.01,2013-01-09 08:30:00,
2013-01-09 02:31:00,49.3,44.7,29.50,NNE,25,0.0,0.0,84,0.04,,RA,0.24,VWS V13.01,2013-01-09 08:31:00,
2013-01-09 02:32:00,49.3,44.7,29.50,North,9,2.7,2.7,84,0.04,,RA,0.24,VWS V13.01,2013-01-09 08:32:00,
2013-01-09 02:33:00,49.3,44.7,29.50,NW,322,0.0,0.0,84,0.04,,-RA,0.28,VWS V13.01,2013-01-09 08:33:00,
2013-01-09 02:34:00,49.3,44.7,29.50,NW,322,0.0,0.0,84,0.08,,RA,0.28,VWS V13.01,2013-01-09 08:34:00,
2013-01-09 02:35:00,49.3,44.7,29.50,NW,322,0.0,0.0,84,0.08,,RA,0.28,VWS V13.01,2013-01-09 08:35:00,
2013-01-09 02:36:00,49.3,44.7,29.50,NW,322,0.0,0.0,84,0.08,,RA,0.28,VWS V13.01,2013-01-09 08:36:00,
2013-01-09 02:37:00,49.3,44.7,29.50,NNW,329,0.0,0.0,84,0.08,,RA,0.28,VWS V13.01,2013-01-09 08:37:00,
2013-01-09 02:38:00,49.3,44.7,29.50,North,0,3.1,3.1,84,0.08,,-RA,0.28,VWS V13.01,2013-01-09 08:38:00,
2013-01-09 02:39:00,49.3,44.7,29.50,North,0,3.1,3.1,84,0.08,,RA,0.28,VWS V13.01,2013-01-09 08:39:00,
2013-01-09 02:40:00,49.3,44.7,29.50,NNW,328,3.1,3.1,84,0.08,,RA,0.28,VWS V13.01,2013-01-09 08:40:00,
2013-01-09 02:41:00,49.3,44.7,29.50,North,353,2.7,3.1,84,0.08,,RA,0.28,VWS V13.01,2013-01-09 08:41:00,
2013-01-09 02:42:00,49.3,44.7,29.50,North,353,2.2,2.7,84,0.08,,RA,0.28,VWS V13.01,2013-01-09 08:42:00,
2013-01-09 02:43:00,49.1,44.5,29.50,NNW,345,0.0,2.7,84,0.08,,-RA,0.28,VWS V13.01,2013-01-09 08:43:00,
2013-01-09 02:44:00,49.1,44.5,29.50,NNW,345,0.0,2.7,84,0.08,,RA,0.28,VWS V13.01,2013-01-09 08:44:00,
2013-01-09 02:45:00,49.1,44.5,29.50,NNE,12,3.1,3.1,84,0.08,,RA,0.28,VWS V13.01,2013-01-09 08:45:00,
2013-01-09 02:46:00,49.1,44.5,29.50,NW,321,2.7,3.1,84,0.08,,RA,0.28,VWS V13.01,2013-01-09 08:46:00,
2013-01-09 02:47:00,49.1,44.5,29.50,NW,321,2.7,2.7,84,0.08,,RA,0.28,VWS V13.01,2013-01-09 08:47:00,
2013-01-09 02:48:00,49.1,44.5,29.50,NW,307,2.7,2.7,84,0.08,,-RA,0.28,VWS V13.01,2013-01-09 08:48:00,
2013-01-09 02:49:00,49.1,44.5,29.50,NW,307,2.7,2.7,84,0.08,,RA,0.28,VWS V13.01,2013-01-09 08:49:00,
2013-01-09 02:50:00,49.1,44.5,29.47,NW,307,2.7,2.7,84,0.12,,RA,0.31,VWS V13.01,2013-01-09 08:50:00,
2013-01-09 02:51:00,49.1,44.5,29.47,NNE,21,0.0,2.7,84,0.12,,RA,0.31,VWS V13.01,2013-01-09 08:51:00,
2013-01-09 02:52:00,49.1,44.5,29.47,NNE,31,2.7,3.1,84,0.12,,RA,0.31,VWS V13.01,2013-01-09 08:52:00,
2013-01-09 02:53:00,49.1,44.5,29.47,NNW,346,0.0,0.0,84,0.12,,RA,0.31,VWS V13.01,2013-01-09 08:53:00,
2013-01-09 02:54:00,49.1,44.5,29.47,NNW,346,0.0,0.0,84,0.12,,RA,0.31,VWS V13.01,2013-01-09 08:54:00,
2013-01-09 02:55:00,49.1,44.5,29.47,NNE,18,0.0,0.0,84,0.12,,RA,0.31,VWS V13.01,2013-01-09 08:55:00,
2013-01-09 02:56:00,49.1,44.5,29.47,NW,312,3.1,3.1,84,0.12,,RA,0.31,VWS V13.01,2013-01-09 08:56:00,
2013-01-09 02:57:00,49.1,44.5,29.47,NW,312,3.1,3.1,84,0.12,,RA,0.31,VWS V13.01,2013-01-09 08:57:00,
2013-01-09 02:58:00,49.1,44.5,29.47,NNW,334,4.0,5.4,84,0.12,,RA,0.31,VWS V13.01,2013-01-09 08:58:00,
2013-01-09 02:59:00,49.1,44.5,29.47,NNW,334,4.0,5.4,84,0.12,,RA,0.31,VWS V13.01,2013-01-09 08:59:00,
2013-01-09 03:00:00,49.1,44.5,29.47,NNW,345,0.0,4.0,84,0.12,,RA,0.31,VWS V13.01,2013-01-09 09:00:00,
2013-01-09 03:01:00,49.1,44.5,29.47,NNW,345,0.0,0.0,84,0.12,,RA,0.31,VWS V13.01,2013-01-09 09:01:00,
2013-01-09 03:02:00,49.1,44.5,29.47,North,353,2.7,2.7,84,0.12,,RA,0.31,VWS V13.01,2013-01-09 09:02:00,
2013-01-09 03:03:00,49.1,44.5,29.47,NNW,339,5.8,5.8,84,0.12,,RA,0.31,VWS V13.01,2013-01-09 09:03:00,
2013-01-09 03:04:00,49.1,44.5,29.47,NNW,339,5.8,5.8,84,0.12,,RA,0.31,VWS V13.01,2013-01-09 09:04:00,
2013-01-09 03:05:00,49.1,44.5,29.47,NE,35,3.6,5.8,84,0.12,,RA,0.31,VWS V13.01,2013-01-09 09:05:00,
2013-01-09 03:06:00,49.1,44.5,29.47,NE,35,3.6,3.6,84,0.12,,RA,0.31,VWS V13.01,2013-01-09 09:06:00,
2013-01-09 03:07:00,49.1,44.5,29.47,North,4,3.1,3.6,84,0.12,,RA,0.31,VWS V13.01,2013-01-09 09:07:00,
2013-01-09 03:08:00,49.1,44.5,29.47,NNW,333,2.7,2.7,84,0.12,,RA,0.31,VWS V13.01,2013-01-09 09:08:00,
2013-01-09 03:09:00,49.1,44.5,29.47,NNW,333,2.7,2.7,84,0.12,,RA,0.31,VWS V13.01,2013-01-09 09:09:00,
2013-01-09 03:10:00,49.1,44.5,29.47,NE,41,3.1,4.9,84,0.08,,RA,0.31,VWS V13.01,2013-01-09 09:10:00,
2013-01-09 03:11:00,49.1,44.5,29.47,North,9,4.9,4.9,84,0.08,,RA,0.31,VWS V13.01,2013-01-09 09:11:00,
2013-01-09 03:12:00,49.1,44.5,29.47,North,9,4.9,4.9,84,0.08,,RA,0.31,VWS V13.01,2013-01-09 09:12:00,
2013-01-09 03:13:00,49.1,44.5,29.47,NNE,14,0.0,0.0,84,0.08,,RA,0.31,VWS V13.01,2013-01-09 09:13:00,
2013-01-09 03:14:00,49.1,44.5,29.47,NNE,14,0.0,0.0,84,0.08,,RA,0.31,VWS V13.01,2013-01-09 09:14:00,
2013-01-09 03:15:00,49.1,44.5,29.47,NNW,338,2.2,2.2,84,0.08,,RA,0.31,VWS V13.01,2013-01-09 09:15:00,
2013-01-09 03:16:00,49.1,44.5,29.47,NNW,334,5.8,5.8,84,0.08,,RA,0.31,VWS V13.01,2013-01-09 09:16:00,
2013-01-09 03:17:00,49.1,44.5,29.47,NNE,12,3.1,5.8,84,0.08,,RA,0.31,VWS V13.01,2013-01-09 09:17:00,
2013-01-09 03:18:00,49.1,44.5,29.47,NNE,12,2.2,2.2,84,0.08,,RA,0.31,VWS V13.01,2013-01-09 09:18:00,
2013-01-09 03:19:00,49.1,44.5,29.47,NNE,12,2.2,2.2,84,0.08,,RA,0.31,VWS V13.01,2013-01-09 09:19:00,
2013-01-09 03:20:00,49.1,44.5,29.47,North,357,4.9,4.9,84,0.08,,RA,0.31,VWS V13.01,2013-01-09 09:20:00,
2013-01-09 03:21:00,49.3,44.7,29.47,NW,314,4.0,4.9,84,0.08,,RA,0.31,VWS V13.01,2013-01-09 09:21:00,
2013-01-09 03:22:00,49.3,44.7,29.47,North,6,3.1,4.0,84,0.08,,RA,0.31,VWS V13.01,2013-01-09 09:22:00,
2013-01-09 10:04:00,53.8,48.8,29.53,North,8,6.3,6.3,83,0.55,,RA,0.79,VWS V13.01,2013-01-09 16:04:00,
2013-01-09 10:09:00,53.8,48.8,29.53,North,0,2.2,3.1,83,0.47,,RA,0.79,VWS V13.01,2013-01-09 16:09:00,
2013-01-09 10:14:00,53.8,48.8,29.53,NNE,28,2.7,2.7,83,0.55,,-RA,0.87,VWS V13.01,2013-01-09 16:14:00,
2013-01-09 10:19:00,53.8,48.8,29.56,NNE,22,3.6,3.6,83,0.55,,-RA,0.87,VWS V13.01,2013-01-09 16:19:00,
2013-01-09 10:24:00,53.8,48.8,29.56,North,357,2.2,3.1,83,0.59,,-RA,0.91,VWS V13.01,2013-01-09 16:24:00,
2013-01-09 10:29:00,53.8,48.8,29.56,NE,35,2.7,2.7,83,0.59,,-RA,0.91,VWS V13.01,2013-01-09 16:29:00,
2013-01-09 10:34:00,54.0,48.9,29.53,ENE,59,2.7,5.4,83,0.63,,-RA,0.94,VWS V13.01,2013-01-09 16:34:00,
2013-01-09 10:39:00,54.0,48.9,29.53,NNW,338,2.7,2.7,83,0.67,,-RA,0.98,VWS V13.01,2013-01-09 16:39:00,
2013-01-09 10:44:00,54.0,48.9,29.53,NNE,15,2.2,2.2,83,0.67,,-RA,0.98,VWS V13.01,2013-01-09 16:44:00,
2013-01-09 10:49:00,54.0,48.9,29.53,NNE,13,3.1,6.3,83,0.71,,-RA,1.02,VWS V13.01,2013-01-09 16:49:00,
2013-01-09 10:54:00,54.0,48.9,29.53,North,353,4.0,5.8,83,0.71,,-RA,1.02,VWS V13.01,2013-01-09 16:54:00,
2013-01-09 10:59:00,54.1,49.1,29.53,North,357,0.0,3.1,83,0.75,,-RA,1.06,VWS V13.01,2013-01-09 16:59:00,
2013-01-09 11:04:00,54.1,49.1,29.53,NW,320,5.8,5.8,83,0.75,,-RA,1.06,VWS V13.01,2013-01-09 17:04:00,
2013-01-09 11:09:00,54.1,49.1,29.53,NNE,23,0.0,2.7,83,0.28,,-RA,1.06,VWS V13.01,2013-01-09 17:09:00,
2013-01-09 11:14:00,54.1,49.1,29.53,NNW,337,3.1,5.4,83,0.24,,-RA,1.10,VWS V13.01,2013-01-09 17:14:00,
2013-01-09 11:19:00,54.3,49.3,29.53,NNE,28,3.1,3.6,83,0.24,,-RA,1.10,VWS V13.01,2013-01-09 17:19:00,
2013-01-09 11:24:00,54.3,49.3,29.53,North,2,0.0,4.0,83,0.20,,-RA,1.10,VWS V13.01,2013-01-09 17:24:00,
2013-01-09 11:29:00,54.3,49.3,29.53,NE,48,3.6,4.0,83,0.20,,-RA,1.10,VWS V13.01,2013-01-09 17:29:00,
2013-01-09 11:34:00,54.3,49.3,29.50,North,357,4.0,4.0,83,0.20,,RA,1.14,VWS V13.01,2013-01-09 17:34:00,
2013-01-09 11:39:00,54.5,49.5,29.50,NE,42,5.4,5.4,83,0.20,,RA,1.14,VWS V13.01,2013-01-09 17:39:00,
2013-01-09 11:44:00,54.5,49.5,29.50,NNE,18,2.7,4.0,83,0.16,,RA,1.14,VWS V13.01,2013-01-09 17:44:00,
2013-01-09 11:49:00,54.5,49.5,29.50,NNW,334,3.1,8.1,83,0.12,,RA,1.14,VWS V13.01,2013-01-09 17:49:00,
2013-01-09 11:54:00,54.5,49.5,29.50,NNE,24,2.2,3.1,83,0.12,,RA,1.14,VWS V13.01,2013-01-09 17:54:00,
2013-01-09 11:59:00,54.5,49.5,29.50,NNW,343,2.2,4.0,83,0.12,,RA,1.18,VWS V13.01,2013-01-09 17:59:00,
2013-01-09 12:04:00,54.5,49.5,29.47,NNE,30,3.1,3.1,83,0.12,,RA,1.18,VWS V13.01,2013-01-09 18:04:00,
2013-01-09 12:09:00,54.5,49.5,29.47,North,1,8.1,8.1,83,0.12,,RA,1.18,VWS V13.01,2013-01-09 18:09:00,
2013-01-09 12:14:00,54.7,49.6,29.47,North,357,5.4,5.8,83,0.12,,RA,1.22,VWS V13.01,2013-01-09 18:14:00,
2013-01-09 12:19:00,54.7,50.0,29.47,North,353,3.1,5.4,84,0.12,,RA,1.22,VWS V13.01,2013-01-09 18:19:00,
2013-01-09 12:24:00,54.9,50.1,29.47,NNE,12,2.2,4.0,84,0.12,,RA,1.22,VWS V13.01,2013-01-09 18:24:00,
2013-01-09 12:29:00,54.9,50.1,29.47,NNE,21,6.3,6.3,84,0.12,,RA,1.22,VWS V13.01,2013-01-09 18:29:00,
2013-01-09 12:34:00,54.9,50.1,29.47,North,357,2.7,4.0,84,0.08,,-RA,1.22,VWS V13.01,2013-01-09 18:34:00,
2013-01-09 12:39:00,54.9,50.1,29.47,NNE,27,4.9,5.8,84,0.08,,-RA,1.22,VWS V13.01,2013-01-09 18:39:00,
2013-01-09 12:41:00,54.9,50.1,29.47,NE,44,0.0,3.1,84,0.08,,-RA,1.22,VWS V13.01,2013-01-09 18:41:00,
2013-01-09 12:44:00,54.9,50.1,29.47,North,2,3.1,3.1,84,0.08,,-RA,1.22,VWS V13.01,2013-01-09 18:44:00,
2013-01-09 12:48:00,54.9,49.8,29.47,North,353,4.9,4.9,83,0.12,,-RA,1.26,VWS V13.01,2013-01-09 18:48:00,
2013-01-09 12:53:00,54.9,49.8,29.47,East,89,3.6,3.6,83,0.12,,-RA,1.26,VWS V13.01,2013-01-09 18:53:00,
2013-01-09 12:58:00,54.9,49.8,29.47,NNE,20,2.7,2.7,83,0.08,,-RA,1.26,VWS V13.01,2013-01-09 18:58:00,
2013-01-09 13:03:00,54.9,49.8,29.47,North,350,4.0,4.0,83,0.12,,-RA,1.30,VWS V13.01,2013-01-09 19:03:00,
2013-01-09 13:08:00,54.9,49.8,29.47,NNE,14,0.0,4.0,83,0.12,,-RA,1.30,VWS V13.01,2013-01-09 19:08:00,
2013-01-09 13:13:00,55.0,50.0,29.47,NE,37,3.6,3.6,83,0.08,,-RA,1.30,VWS V13.01,2013-01-09 19:13:00,
2013-01-09 13:18:00,55.0,50.0,29.47,NE,38,4.0,4.0,83,0.08,,-RA,1.30,VWS V13.01,2013-01-09 19:18:00,
2013-01-09 13:23:00,55.0,50.0,29.47,North,6,4.0,4.0,83,0.08,,-RA,1.30,VWS V13.01,2013-01-09 19:23:00,
2013-01-09 13:28:00,55.0,50.0,29.47,North,353,0.0,0.0,83,0.12,,-RA,1.34,VWS V13.01,2013-01-09 19:28:00,
2013-01-09 13:33:00,55.0,50.0,29.44,NE,41,4.0,6.3,83,0.16,,-RA,1.38,VWS V13.01,2013-01-09 19:33:00,
2013-01-09 13:38:00,55.0,50.0,29.44,North,9,3.6,3.6,83,0.16,,-RA,1.38,VWS V13.01,2013-01-09 19:38:00,
2013-01-09 13:43:00,55.0,50.0,29.44,NNW,344,5.4,7.6,83,0.16,,-RA,1.38,VWS V13.01,2013-01-09 19:43:00,
2013-01-09 13:48:00,55.0,50.0,29.41,NNE,26,4.5,7.6,83,0.12,,-RA,1.38,VWS V13.01,2013-01-09 19:48:00,
2013-01-09 13:53:00,55.0,50.0,29.41,NNE,20,4.9,4.9,83,0.12,,-RA,1.38,VWS V13.01,2013-01-09 19:53:00,
2013-01-09 13:58:00,55.2,50.2,29.41,NE,45,3.6,10.1,83,0.12,,-RA,1.38,VWS V13.01,2013-01-09 19:58:00,
2013-01-09 14:03:00,55.4,50.3,29.41,North,353,2.7,2.7,83,0.12,,-RA,1.38,VWS V13.01,2013-01-09 20:03:00,
2013-01-09 14:08:00,55.4,50.3,29.41,NNE,25,4.9,8.7,83,0.12,,-RA,1.42,VWS V13.01,2013-01-09 20:08:00,
2013-01-09 14:13:00,55.4,50.3,29.41,North,5,2.7,2.7,83,0.12,,-RA,1.42,VWS V13.01,2013-01-09 20:13:00,
2013-01-09 14:18:00,55.4,50.3,29.41,NNE,12,2.2,2.2,83,0.12,,-RA,1.42,VWS V13.01,2013-01-09 20:18:00,
2013-01-09 14:23:00,55.6,50.5,29.41,NE,43,3.1,8.1,83,0.12,,-RA,1.42,VWS V13.01,2013-01-09 20:23:00,
2013-01-09 14:28:00,55.6,50.5,29.41,North,2,3.1,3.1,83,0.08,,-RA,1.42,VWS V13.01,2013-01-09 20:28:00,
2013-01-09 14:33:00,55.6,50.5,29.44,ENE,78,3.1,3.1,83,0.04,,-RA,1.42,VWS V13.01,2013-01-09 20:33:00,
2013-01-09 14:38:00,55.8,50.7,29.44,East,96,0.0,7.6,83,0.04,,-RA,1.42,VWS V13.01,2013-01-09 20:38:00,
2013-01-09 14:43:00,55.9,50.9,29.44,NE,44,0.0,0.0,83,0.04,,-RA,1.42,VWS V13.01,2013-01-09 20:43:00,
2013-01-09 14:48:00,55.9,50.9,29.44,ENE,59,2.2,5.8,83,0.04,,-RA,1.42,VWS V13.01,2013-01-09 20:48:00,
2013-01-09 14:53:00,55.9,50.9,29.44,NNE,29,0.0,0.0,83,0.04,,-RA,1.42,VWS V13.01,2013-01-09 20:53:00,
2013-01-09 14:58:00,55.9,50.9,29.44,NNW,339,0.0,0.0,83,0.04,,-RA,1.42,VWS V13.01,2013-01-09 20:58:00,
2013-01-09 15:03:00,55.9,50.9,29.44,North,0,4.9,4.9,83,0.08,,-RA,1.46,VWS V13.01,2013-01-09 21:03:00,
2013-01-09 15:08:00,55.9,50.9,29.44,North,6,3.6,5.8,83,0.04,,-RA,1.46,VWS V13.01,2013-01-09 21:08:00,
2013-01-09 15:13:00,56.1,51.0,29.44,NE,46,0.0,0.0,83,0.04,,-RA,1.46,VWS V13.01,2013-01-09 21:13:00,
2013-01-09 15:18:00,56.1,51.0,29.44,NE,46,0.0,4.9,83,0.04,,-RA,1.46,VWS V13.01,2013-01-09 21:18:00,
2013-01-09 15:23:00,56.1,51.0,29.44,ENE,72,0.0,2.7,83,0.04,,-RA,1.46,VWS V13.01,2013-01-09 21:23:00,
2013-01-09 15:28:00,56.1,51.0,29.44,NE,54,0.0,4.0,83,0.04,,-RA,1.46,VWS V13.01,2013-01-09 21:28:00,
2013-01-09 15:33:00,56.1,50.7,29.47,East,93,0.0,0.0,82,0.04,,-RA,1.46,VWS V13.01,2013-01-09 21:33:00,
2013-01-09 15:38:00,56.1,50.7,29.47,ENE,62,2.7,2.7,82,0.04,,-RA,1.46,VWS V13.01,2013-01-09 21:38:00,
2013-01-09 15:43:00,56.3,50.9,29.47,ENE,68,0.0,6.3,82,0.04,,-RA,1.46,VWS V13.01,2013-01-09 21:43:00,
2013-01-09 15:48:00,56.1,50.7,29.47,NE,46,0.0,5.8,82,0.08,,-RA,1.50,VWS V13.01,2013-01-09 21:48:00,
2013-01-09 15:53:00,56.3,50.9,29.47,NNW,333,3.6,3.6,82,0.08,,-RA,1.50,VWS V13.01,2013-01-09 21:53:00,
2013-01-09 15:58:00,56.1,50.7,29.47,NNE,22,4.9,5.4,82,0.08,,-RA,1.50,VWS V13.01,2013-01-09 21:58:00,
2013-01-09 16:03:00,56.1,50.7,29.47,NNE,32,3.6,3.6,82,0.04,,-RA,1.50,VWS V13.01,2013-01-09 22:03:00,
2013-01-09 16:08:00,56.1,50.7,29.47,East,86,5.8,5.8,82,0.04,,-RA,1.50,VWS V13.01,2013-01-09 22:08:00,
2013-01-09 16:13:00,56.1,50.7,29.47,North,357,3.6,4.0,82,0.04,,-RA,1.50,VWS V13.01,2013-01-09 22:13:00,
2013-01-09 16:18:00,56.1,50.7,29.44,NE,55,0.0,0.0,82,0.04,,-RA,1.50,VWS V13.01,2013-01-09 22:18:00,
2013-01-09 16:23:00,56.1,50.7,29.44,NNE,22,3.6,5.8,82,0.04,,-RA,1.50,VWS V13.01,2013-01-09 22:23:00,
2013-01-09 16:28:00,56.1,50.7,29.44,NE,48,2.2,2.7,82,0.04,,-RA,1.50,VWS V13.01,2013-01-09 22:28:00,
2013-01-09 16:33:00,55.9,50.5,29.44,North,4,2.2,3.1,82,0.04,,-RA,1.50,VWS V13.01,2013-01-09 22:33:00,
2013-01-09 16:38:00,55.9,50.5,29.44,NE,44,2.7,4.0,82,0.04,,-RA,1.50,VWS V13.01,2013-01-09 22:38:00,
2013-01-09 16:43:00,55.9,50.5,29.44,NE,41,0.0,5.4,82,0.08,,-RA,1.54,VWS V13.01,2013-01-09 22:43:00,
2013-01-09 16:48:00,55.9,50.5,29.44,NE,39,2.2,3.1,82,0.04,,-RA,1.54,VWS V13.01,2013-01-09 22:48:00,
2013-01-09 16:53:00,55.9,50.5,29.44,ENE,70,0.0,4.0,82,0.04,,-RA,1.54,VWS V13.01,2013-01-09 22:53:00,
2013-01-09 16:58:00,55.9,50.5,29.44,ENE,62,3.1,7.2,82,0.04,,-RA,1.54,VWS V13.01,2013-01-09 22:58:00,
2013-01-09 17:03:00,55.9,50.5,29.44,NE,44,0.0,4.0,82,0.04,,-RA,1.54,VWS V13.01,2013-01-09 23:03:00,
2013-01-09 17:08:00,55.9,50.2,29.44,NW,317,4.9,6.3,81,0.04,,-RA,1.54,VWS V13.01,2013-01-09 23:08:00,
2013-01-09 17:13:00,55.9,50.2,29.44,NE,37,0.0,2.7,81,0.04,,-RA,1.54,VWS V13.01,2013-01-09 23:13:00,
2013-01-09 17:18:00,55.8,50.0,29.47,North,5,0.0,3.6,81,0.04,,-RA,1.54,VWS V13.01,2013-01-09 23:18:00,
2013-01-09 17:23:00,55.8,50.0,29.47,NE,34,3.6,8.1,81,0.04,,-RA,1.54,VWS V13.01,2013-01-09 23:23:00,
2013-01-09 17:28:00,55.8,50.0,29.47,NNW,333,2.7,6.3,81,0.08,,-RA,1.57,VWS V13.01,2013-01-09 23:28:00,
2013-01-09 17:33:00,55.8,50.0,29.44,ENE,71,6.3,6.3,81,0.08,,-RA,1.57,VWS V13.01,2013-01-09 23:33:00,
2013-01-09 17:38:00,55.8,50.0,29.44,NW,318,4.0,5.4,81,0.08,,-RA,1.57,VWS V13.01,2013-01-09 23:38:00,
2013-01-09 17:43:00,55.8,50.0,29.44,NNE,24,5.8,5.8,81,0.04,,RA,1.57,VWS V13.01,2013-01-09 23:43:00,
2013-01-09 17:48:00,55.8,50.0,29.41,NNW,340,3.1,3.1,81,0.04,,RA,1.57,VWS V13.01,2013-01-09 23:48:00,
2013-01-09 17:53:00,55.6,49.8,29.41,NNE,21,3.1,4.0,81,0.04,,RA,1.57,VWS V13.01,2013-01-09 23:53:00,
2013-01-09 17:58:00,55.6,49.8,29.41,NNE,20,2.7,5.4,81,0.04,,RA,1.57,VWS V13.01,2013-01-09 23:58:00,
2013-01-09 18:03:00,55.6,49.8,29.38,North,349,7.6,8.1,81,0.04,,RA,1.57,VWS V13.01,2013-01-10 00:03:00,
2013-01-09 18:08:00,55.6,49.8,29.38,NNE,32,10.1,10.1,81,0.04,,RA,1.57,VWS V13.01,2013-01-10 00:08:00,
2013-01-09 18:13:00,55.4,49.7,29.38,North,2,5.4,7.6,81,0.04,,-RA,1.57,VWS V13.01,2013-01-10 00:13:00,
2013-01-09 18:18:00,55.4,49.7,29.35,ENE,77,4.0,10.5,81,0.04,,-RA,1.57,VWS V13.01,2013-01-10 00:18:00,
2013-01-09 18:23:00,55.4,49.7,29.35,NE,55,8.1,8.1,81,0.04,,-RA,1.57,VWS V13.01,2013-01-10 00:23:00,
2013-01-09 18:28:00,55.2,49.5,29.35,NNE,28,3.1,10.1,81,0.04,,-RA,1.57,VWS V13.01,2013-01-10 00:28:00,
2013-01-09 18:33:00,55.4,49.7,29.38,NE,34,4.5,5.4,81,0.00,,-RA,1.57,VWS V13.01,2013-01-10 00:33:00,
2013-01-09 18:38:00,55.4,49.7,29.38,NE,41,5.4,6.3,81,0.00,,-RA,1.57,VWS V13.01,2013-01-10 00:38:00,
2013-01-09 18:43:00,55.4,49.7,29.38,NNE,30,8.1,10.1,81,0.00,,-RA,1.57,VWS V13.01,2013-01-10 00:43:00,
2013-01-09 18:48:00,55.4,49.7,29.38,NNE,27,2.2,3.6,81,0.00,,-RA,1.57,VWS V13.01,2013-01-10 00:48:00,
2013-01-09 18:53:00,55.2,49.5,29.38,ESE,112,4.0,5.4,81,0.00,,-RA,1.57,VWS V13.01,2013-01-10 00:53:00,
2013-01-09 18:58:00,55.4,49.7,29.38,ENE,59,4.0,5.4,81,0.00,,-RA,1.57,VWS V13.01,2013-01-10 00:58:00,
2013-01-09 19:03:00,55.2,49.5,29.41,ENE,63,0.0,5.8,81,0.00,,-RA,1.57,VWS V13.01,2013-01-10 01:03:00,
2013-01-09 19:08:00,55.2,49.5,29.41,NNE,30,3.6,3.6,81,0.00,,-RA,1.57,VWS V13.01,2013-01-10 01:08:00,
2013-01-09 19:13:00,55.2,49.5,29.41,NNE,30,3.1,4.0,81,0.00,,-RA,1.57,VWS V13.01,2013-01-10 01:13:00,
2013-01-09 19:18:00,55.2,49.5,29.41,NNE,20,5.8,5.8,81,0.00,,-RA,1.57,VWS V13.01,2013-01-10 01:18:00,
2013-01-09 19:23:00,55.2,49.5,29.41,NE,37,4.0,5.8,81,0.00,,-RA,1.57,VWS V13.01,2013-01-10 01:23:00,
2013-01-09 19:28:00,55.2,49.5,29.41,East,100,5.4,8.7,81,0.00,,-RA,1.57,VWS V13.01,2013-01-10 01:28:00,
2013-01-09 19:33:00,55.2,49.5,29.41,NE,37,7.2,7.2,81,0.00,,-RA,1.57,VWS V13.01,2013-01-10 01:33:00,
2013-01-09 19:38:00,55.2,49.5,29.41,East,87,2.7,3.6,81,0.00,,-RA,1.57,VWS V13.01,2013-01-10 01:38:00,
2013-01-09 19:43:00,55.2,49.2,29.41,NE,44,3.1,4.0,80,0.00,,OVC008,1.57,VWS V13.01,2013-01-10 01:43:00,
2013-01-09 19:48:00,55.2,49.2,29.41,NNW,343,2.2,3.6,80,0.00,,OVC008,1.57,VWS V13.01,2013-01-10 01:48:00,
2013-01-09 19:53:00,55.4,49.3,29.41,East,92,4.0,5.4,80,0.00,,OVC008,1.57,VWS V13.01,2013-01-10 01:53:00,
2013-01-09 19:58:00,55.4,49.3,29.41,SE,129,0.0,0.0,80,0.00,,OVC008,1.57,VWS V13.01,2013-01-10 01:58:00,
2013-01-09 20:03:00,55.6,49.5,29.41,East,82,2.7,4.0,80,0.00,,OVC008,1.57,VWS V13.01,2013-01-10 02:03:00,
2013-01-09 20:08:00,55.6,49.5,29.41,NE,35,3.1,3.1,80,0.00,,OVC008,1.57,VWS V13.01,2013-01-10 02:08:00,
2013-01-09 20:13:00,55.8,49.7,29.41,West,280,5.8,5.8,80,0.00,,OVC008,1.57,VWS V13.01,2013-01-10 02:13:00,
2013-01-09 20:18:00,55.8,49.7,29.41,NE,37,3.6,3.6,80,0.00,,OVC008,1.57,VWS V13.01,2013-01-10 02:18:00,
2013-01-09 20:23:00,55.9,49.9,29.41,ENE,62,0.0,2.7,80,0.00,,OVC008,1.57,VWS V13.01,2013-01-10 02:23:00,
2013-01-09 20:28:00,55.9,49.9,29.41,NE,46,0.0,0.0,80,0.00,,OVC008,1.57,VWS V13.01,2013-01-10 02:28:00,
2013-01-09 20:33:00,55.9,49.9,29.44,ENE,77,0.0,3.6,80,0.00,,OVC008,1.57,VWS V13.01,2013-01-10 02:33:00,
2013-01-09 20:38:00,55.9,49.9,29.44,NNE,19,3.6,7.2,80,0.00,,OVC008,1.57,VWS V13.01,2013-01-10 02:38:00,
2013-01-09 20:43:00,55.9,49.9,29.44,North,0,0.0,0.0,80,0.00,,OVC006,1.57,VWS V13.01,2013-01-10 02:43:00,
2013-01-09 20:48:00,55.9,49.9,29.44,ENE,64,0.0,0.0,80,0.00,,OVC006,1.57,VWS V13.01,2013-01-10 02:48:00,
2013-01-09 20:53:00,55.9,49.9,29.44,ENE,72,0.0,0.0,80,0.00,,OVC006,1.57,VWS V13.01,2013-01-10 02:53:00,
2013-01-09 20:58:00,55.9,49.9,29.44,East,101,0.0,0.0,80,0.00,,OVC006,1.57,VWS V13.01,2013-01-10 02:58:00,
2013-01-09 21:03:00,55.9,49.9,29.44,SE,126,0.0,0.0,80,0.00,,OVC006,1.57,VWS V13.01,2013-01-10 03:03:00,
2013-01-09 21:08:00,55.9,49.9,29.44,East,100,0.0,0.0,80,0.00,,OVC006,1.57,VWS V13.01,2013-01-10 03:08:00,
2013-01-09 21:13:00,55.9,49.9,29.44,East,101,0.0,0.0,80,0.00,,OVC006,1.57,VWS V13.01,2013-01-10 03:13:00,
2013-01-09 21:18:00,55.9,49.9,29.47,East,91,5.4,5.4,80,0.00,,OVC006,1.57,VWS V13.01,2013-01-10 03:18:00,
2013-01-09 21:23:00,55.9,49.9,29.47,NNE,29,3.1,4.0,80,0.00,,OVC006,1.57,VWS V13.01,2013-01-10 03:23:00,
2013-01-09 21:28:00,55.9,49.9,29.47,East,99,0.0,4.0,80,0.00,,OVC006,1.57,VWS V13.01,2013-01-10 03:28:00,
2013-01-09 21:33:00,55.9,49.9,29.47,NNE,33,0.0,3.6,80,0.00,,OVC006,1.57,VWS V13.01,2013-01-10 03:33:00,
2013-01-09 21:38:00,55.9,49.5,29.47,East,79,0.0,0.0,79,0.00,,OVC006,1.57,VWS V13.01,2013-01-10 03:38:00,
2013-01-09 21:43:00,55.8,49.4,29.47,NE,50,0.0,0.0,79,0.00,,OVC006,1.57,VWS V13.01,2013-01-10 03:43:00,
2013-01-09 21:48:00,55.8,49.4,29.47,NE,45,0.0,0.0,79,0.00,,OVC006,1.57,VWS V13.01,2013-01-10 03:48:00,
2013-01-09 21:53:00,55.6,49.2,29.47,ENE,61,0.0,0.0,79,0.00,,OVC006,1.57,VWS V13.01,2013-01-10 03:53:00,
2013-01-09 21:58:00,55.6,49.2,29.47,ESE,109,0.0,0.0,79,0.00,,OVC006,1.57,VWS V13.01,2013-01-10 03:58:00,
2013-01-09 22:03:00,55.6,49.2,29.47,NE,55,0.0,0.0,79,0.00,, +RA,1.57,VWS V13.01,2013-01-10 04:03:00,
2013-01-09 22:08:00,55.6,49.2,29.47,NE,46,5.4,5.4,79,0.00,, +RA,1.57,VWS V13.01,2013-01-10 04:08:00,
2013-01-09 22:13:00,55.8,49.4,29.47,NNE,28,0.0,2.7,79,0.00,, +RA,1.57,VWS V13.01,2013-01-10 04:13:00,
2013-01-09 22:18:00,55.6,49.2,29.47,NE,36,4.0,4.0,79,0.00,, +RA,1.57,VWS V13.01,2013-01-10 04:18:00,
2013-01-09 22:23:00,55.6,49.2,29.44,NNE,23,0.0,0.0,79,0.00,, +RA,1.57,VWS V13.01,2013-01-10 04:23:00,
2013-01-09 22:28:00,55.6,49.5,29.44,NNE,28,2.7,4.9,80,0.00,, +RA,1.57,VWS V13.01,2013-01-10 04:28:00,
2013-01-09 22:33:00,55.6,49.5,29.44,NNE,18,0.0,0.0,80,0.00,, +RA,1.57,VWS V13.01,2013-01-10 04:33:00,
2013-01-09 22:38:00,55.6,49.5,29.41,NE,45,2.7,3.1,80,0.00,, +RA,1.57,VWS V13.01,2013-01-10 04:38:00,
2013-01-09 22:43:00,55.6,49.5,29.41,North,10,3.1,3.1,80,0.00,,-RA,1.57,VWS V13.01,2013-01-10 04:43:00,
2013-01-09 22:48:00,55.6,49.5,29.44,NNE,25,3.1,3.1,80,0.00,,-RA,1.57,VWS V13.01,2013-01-10 04:48:00,
2013-01-09 22:53:00,55.6,49.5,29.44,NE,50,4.0,4.0,80,0.00,,-RA,1.57,VWS V13.01,2013-01-10 04:53:00,
2013-01-09 22:58:00,55.6,49.5,29.44,NE,34,5.8,5.8,80,0.00,,-RA,1.57,VWS V13.01,2013-01-10 04:58:00,
2013-01-09 23:00:00,55.6,49.5,29.44,NNE,30,2.7,2.7,80,0.00,,-RA,1.57,VWS V13.01,2013-01-10 05:00:00,
2013-01-09 23:02:00,55.6,49.5,29.44,NE,37,4.0,4.0,80,0.00,,-RA,1.57,VWS V13.01,2013-01-10 05:02:00,
2013-01-09 23:07:00,55.6,49.8,29.41,NNE,12,0.0,2.7,81,0.00,,-RA,1.57,VWS V13.01,2013-01-10 05:07:00,
2013-01-09 23:12:00,55.6,49.8,29.41,North,353,2.2,4.0,81,0.00,,-RA,1.57,VWS V13.01,2013-01-10 05:12:00,
2013-01-09 23:17:00,55.4,49.7,29.41,East,81,2.7,3.1,81,0.08,,-RA,1.65,VWS V13.01,2013-01-10 05:17:00,
2013-01-09 23:22:00,55.4,49.7,29.41,NNE,21,2.2,3.6,81,0.08,,-RA,1.65,VWS V13.01,2013-01-10 05:22:00,
2013-01-09 23:27:00,55.4,49.7,29.41,NE,34,3.1,4.0,81,0.08,,-RA,1.65,VWS V13.01,2013-01-10 05:27:00,
2013-01-09 23:32:00,55.4,49.7,29.41,NE,54,0.0,2.2,81,0.08,,-RA,1.65,VWS V13.01,2013-01-10 05:32:00,
2013-01-09 23:37:00,55.2,49.5,29.41,NNE,14,0.0,0.0,81,0.08,,-RA,1.65,VWS V13.01,2013-01-10 05:37:00,
2013-01-09 23:42:00,55.2,49.8,29.41,ENE,70,0.0,0.0,82,0.08,,-RA,1.65,VWS V13.01,2013-01-10 05:42:00,
2013-01-09 23:47:00,55.2,49.8,29.41,NE,54,0.0,0.0,82,0.08,,-RA,1.65,VWS V13.01,2013-01-10 05:47:00,
2013-01-09 23:52:00,55.4,49.7,29.41,ESE,106,2.7,2.7,81,0.08,,-RA,1.65,VWS V13.01,2013-01-10 05:52:00,
2013-01-09 23:57:00,55.2,49.8,29.41,ENE,57,2.7,5.8,82,0.08,,-RA,1.65,VWS V13.01,2013-01-10 05:57:00,